METAR Data
IDs: Format: Raw Decoded Include TAF

Data at: 0230 UTC 29 Nov 2020

METAR for:KBRL (Burlington/SE Iowa R, IA, US)
Text:KBRL 290153Z AUTO 21009KT 10SM CLR 06/00 A3008 RMK AO2 SLP191 T00560000
Temperature: 5.6°C ( 42°F)
Dewpoint: 0.0°C ( 32°F) [RH = 67%]
Pressure (altimeter):30.08 inches Hg (1018.7 mb) [Sea level pressure: 1019.1 mb]
Winds:from the SSW (210 degrees) at 10 MPH (9 knots; 4.6 m/s)
Visibility:10 or more sm (16+ km)
Ceiling:at least 12,000 feet AGL
Clouds:sky clear below 12,000 feet AGL
QC Flag:automated observation with no human augmentation